sensor_id;sensor_type;location;lat;lon;timestamp;P1;durP1;ratioP1;P2;durP2;ratioP2
41512;SDS011;27244;59.940;30.280;2022-12-07T00:00:36;23.40;;;19.25;;
41512;SDS011;27244;59.940;30.280;2022-12-07T00:03:03;21.60;;;19.15;;
41512;SDS011;27244;59.940;30.280;2022-12-07T00:05:30;24.67;;;20.83;;
41512;SDS011;27244;59.940;30.280;2022-12-07T00:07:57;24.02;;;21.25;;
41512;SDS011;27244;59.940;30.280;2022-12-07T00:10:24;24.15;;;21.48;;
41512;SDS011;27244;59.940;30.280;2022-12-07T00:12:51;24.30;;;20.98;;
41512;SDS011;27244;59.940;30.280;2022-12-07T00:15:19;22.95;;;20.48;;
41512;SDS011;27244;59.940;30.280;2022-12-07T00:17:46;22.08;;;19.67;;
41512;SDS011;27244;59.940;30.280;2022-12-07T00:20:13;21.30;;;18.38;;
41512;SDS011;27244;59.940;30.280;2022-12-07T00:22:40;19.75;;;17.63;;
41512;SDS011;27244;59.940;30.280;2022-12-07T00:25:07;23.73;;;18.48;;
41512;SDS011;27244;59.940;30.280;2022-12-07T00:27:34;20.63;;;17.85;;
41512;SDS011;27244;59.940;30.280;2022-12-07T00:30:01;20.52;;;17.52;;
41512;SDS011;27244;59.940;30.280;2022-12-07T00:32:30;19.13;;;16.58;;
41512;SDS011;27244;59.940;30.280;2022-12-07T00:34:57;19.73;;;16.70;;
41512;SDS011;27244;59.940;30.280;2022-12-07T00:37:24;20.25;;;15.27;;
41512;SDS011;27244;59.940;30.280;2022-12-07T00:39:51;16.65;;;14.40;;
41512;SDS011;27244;59.940;30.280;2022-12-07T00:42:18;14.63;;;12.85;;
41512;SDS011;27244;59.940;30.280;2022-12-07T00:44:45;14.52;;;12.68;;
41512;SDS011;27244;59.940;30.280;2022-12-07T00:47:12;13.30;;;11.65;;
41512;SDS011;27244;59.940;30.280;2022-12-07T00:49:40;14.30;;;11.57;;
41512;SDS011;27244;59.940;30.280;2022-12-07T00:52:07;14.40;;;11.90;;
41512;SDS011;27244;59.940;30.280;2022-12-07T00:54:34;13.70;;;12.20;;
41512;SDS011;27244;59.940;30.280;2022-12-07T00:57:01;15.40;;;11.85;;
41512;SDS011;27244;59.940;30.280;2022-12-07T00:59:28;14.57;;;12.07;;
41512;SDS011;27244;59.940;30.280;2022-12-07T01:01:55;12.65;;;11.27;;
41512;SDS011;27244;59.940;30.280;2022-12-07T01:04:22;14.93;;;12.75;;
41512;SDS011;27244;59.940;30.280;2022-12-07T01:06:50;13.63;;;12.15;;
41512;SDS011;27244;59.940;30.280;2022-12-07T01:09:17;13.30;;;11.90;;
41512;SDS011;27244;59.940;30.280;2022-12-07T01:11:44;15.75;;;12.55;;
41512;SDS011;27244;59.940;30.280;2022-12-07T01:14:11;14.13;;;11.70;;
41512;SDS011;27244;59.940;30.280;2022-12-07T01:16:38;14.05;;;11.93;;
41512;SDS011;27244;59.940;30.280;2022-12-07T01:19:05;13.13;;;11.38;;
41512;SDS011;27244;59.940;30.280;2022-12-07T01:21:33;12.55;;;11.05;;
41512;SDS011;27244;59.940;30.280;2022-12-07T01:24:04;12.45;;;11.05;;
41512;SDS011;27244;59.940;30.280;2022-12-07T01:26:32;11.40;;;10.20;;
41512;SDS011;27244;59.940;30.280;2022-12-07T01:28:59;13.13;;;10.35;;
41512;SDS011;27244;59.940;30.280;2022-12-07T01:31:27;11.75;;;10.10;;
41512;SDS011;27244;59.940;30.280;2022-12-07T01:33:54;12.57;;;10.15;;
41512;SDS011;27244;59.940;30.280;2022-12-07T01:36:24;11.82;;;9.73;;
41512;SDS011;27244;59.940;30.280;2022-12-07T01:38:54;10.50;;;8.48;;
41512;SDS011;27244;59.940;30.280;2022-12-07T01:41:25;11.98;;;9.10;;
41512;SDS011;27244;59.940;30.280;2022-12-07T01:46:55;10.80;;;8.50;;
41512;SDS011;27244;59.940;30.280;2022-12-07T01:49:28;9.57;;;8.35;;
41512;SDS011;27244;59.940;30.280;2022-12-07T01:52:00;9.48;;;8.25;;
41512;SDS011;27244;59.940;30.280;2022-12-07T01:54:34;9.77;;;8.77;;
41512;SDS011;27244;59.940;30.280;2022-12-07T01:57:03;10.77;;;8.98;;
41512;SDS011;27244;59.940;30.280;2022-12-07T01:59:33;9.70;;;8.27;;
41512;SDS011;27244;59.940;30.280;2022-12-07T02:02:01;9.57;;;8.55;;
41512;SDS011;27244;59.940;30.280;2022-12-07T02:04:30;9.30;;;8.27;;
41512;SDS011;27244;59.940;30.280;2022-12-07T02:06:58;9.15;;;8.15;;
41512;SDS011;27244;59.940;30.280;2022-12-07T02:09:25;9.10;;;7.95;;
41512;SDS011;27244;59.940;30.280;2022-12-07T02:11:52;8.20;;;7.30;;
41512;SDS011;27244;59.940;30.280;2022-12-07T02:14:21;8.80;;;7.38;;
41512;SDS011;27244;59.940;30.280;2022-12-07T02:16:53;9.07;;;7.35;;
41512;SDS011;27244;59.940;30.280;2022-12-07T02:25:20;7.15;;;6.10;;
41512;SDS011;27244;59.940;30.280;2022-12-07T02:27:58;8.07;;;7.05;;
41512;SDS011;27244;59.940;30.280;2022-12-07T02:30:32;7.82;;;6.90;;
41512;SDS011;27244;59.940;30.280;2022-12-07T02:33:07;7.68;;;6.30;;
41512;SDS011;27244;59.940;30.280;2022-12-07T02:35:39;7.47;;;6.43;;
41512;SDS011;27244;59.940;30.280;2022-12-07T02:38:11;8.30;;;6.50;;
41512;SDS011;27244;59.940;30.280;2022-12-07T02:40:43;8.18;;;6.50;;
41512;SDS011;27244;59.940;30.280;2022-12-07T02:43:16;8.20;;;6.63;;
41512;SDS011;27244;59.940;30.280;2022-12-07T02:45:47;7.22;;;6.25;;
41512;SDS011;27244;59.940;30.280;2022-12-07T02:48:17;8.63;;;6.63;;
41512;SDS011;27244;59.940;30.280;2022-12-07T02:50:48;7.20;;;6.22;;
41512;SDS011;27244;59.940;30.280;2022-12-07T02:53:28;7.38;;;6.32;;
41512;SDS011;27244;59.940;30.280;2022-12-07T02:55:56;7.22;;;6.47;;
41512;SDS011;27244;59.940;30.280;2022-12-07T02:58:27;6.78;;;5.93;;
41512;SDS011;27244;59.940;30.280;2022-12-07T03:01:07;7.85;;;6.50;;
41512;SDS011;27244;59.940;30.280;2022-12-07T03:03:42;10.25;;;6.18;;
41512;SDS011;27244;59.940;30.280;2022-12-07T03:06:16;6.40;;;5.80;;
41512;SDS011;27244;59.940;30.280;2022-12-07T03:08:51;6.57;;;5.88;;
41512;SDS011;27244;59.940;30.280;2022-12-07T03:11:25;6.78;;;5.95;;
41512;SDS011;27244;59.940;30.280;2022-12-07T03:13:59;6.35;;;5.60;;
41512;SDS011;27244;59.940;30.280;2022-12-07T03:16:37;6.22;;;5.53;;
41512;SDS011;27244;59.940;30.280;2022-12-07T03:19:10;6.93;;;5.43;;
41512;SDS011;27244;59.940;30.280;2022-12-07T03:21:42;6.18;;;5.30;;
41512;SDS011;27244;59.940;30.280;2022-12-07T03:24:14;5.38;;;4.88;;
41512;SDS011;27244;59.940;30.280;2022-12-07T03:26:44;7.65;;;5.68;;
41512;SDS011;27244;59.940;30.280;2022-12-07T03:29:17;5.82;;;5.22;;
41512;SDS011;27244;59.940;30.280;2022-12-07T03:31:50;6.68;;;4.93;;
41512;SDS011;27244;59.940;30.280;2022-12-07T03:34:21;5.60;;;4.93;;
41512;SDS011;27244;59.940;30.280;2022-12-07T03:36:55;5.60;;;5.10;;
41512;SDS011;27244;59.940;30.280;2022-12-07T03:39:27;6.38;;;5.07;;
41512;SDS011;27244;59.940;30.280;2022-12-07T03:41:58;6.32;;;4.93;;
41512;SDS011;27244;59.940;30.280;2022-12-07T03:44:27;5.53;;;4.93;;
41512;SDS011;27244;59.940;30.280;2022-12-07T03:46:59;5.13;;;4.30;;
41512;SDS011;27244;59.940;30.280;2022-12-07T03:49:31;6.50;;;5.20;;
41512;SDS011;27244;59.940;30.280;2022-12-07T03:52:03;5.25;;;4.75;;
41512;SDS011;27244;59.940;30.280;2022-12-07T03:54:39;5.40;;;4.68;;
41512;SDS011;27244;59.940;30.280;2022-12-07T03:57:11;5.10;;;4.50;;
41512;SDS011;27244;59.940;30.280;2022-12-07T03:59:39;6.05;;;4.80;;
41512;SDS011;27244;59.940;30.280;2022-12-07T04:02:09;5.72;;;4.63;;
41512;SDS011;27244;59.940;30.280;2022-12-07T04:04:39;4.85;;;4.20;;
41512;SDS011;27244;59.940;30.280;2022-12-07T04:07:06;5.28;;;4.78;;
41512;SDS011;27244;59.940;30.280;2022-12-07T04:09:33;5.63;;;4.70;;
41512;SDS011;27244;59.940;30.280;2022-12-07T04:12:00;4.75;;;4.20;;
41512;SDS011;27244;59.940;30.280;2022-12-07T04:14:27;5.47;;;4.72;;
41512;SDS011;27244;59.940;30.280;2022-12-07T04:16:54;4.82;;;4.22;;
41512;SDS011;27244;59.940;30.280;2022-12-07T04:19:25;5.28;;;4.40;;
41512;SDS011;27244;59.940;30.280;2022-12-07T04:21:52;5.20;;;4.70;;
41512;SDS011;27244;59.940;30.280;2022-12-07T04:24:19;6.38;;;4.88;;
41512;SDS011;27244;59.940;30.280;2022-12-07T04:26:46;6.18;;;4.80;;
41512;SDS011;27244;59.940;30.280;2022-12-07T04:29:14;5.95;;;5.35;;
41512;SDS011;27244;59.940;30.280;2022-12-07T04:31:42;6.50;;;5.63;;
41512;SDS011;27244;59.940;30.280;2022-12-07T04:34:10;7.15;;;5.97;;
41512;SDS011;27244;59.940;30.280;2022-12-07T04:36:39;7.65;;;6.28;;
41512;SDS011;27244;59.940;30.280;2022-12-07T04:39:07;5.32;;;4.68;;
41512;SDS011;27244;59.940;30.280;2022-12-07T04:41:39;8.43;;;6.88;;
41512;SDS011;27244;59.940;30.280;2022-12-07T04:44:13;7.47;;;6.40;;
41512;SDS011;27244;59.940;30.280;2022-12-07T04:46:41;7.00;;;6.30;;
41512;SDS011;27244;59.940;30.280;2022-12-07T04:49:08;6.88;;;6.18;;
41512;SDS011;27244;59.940;30.280;2022-12-07T04:51:36;7.30;;;5.82;;
41512;SDS011;27244;59.940;30.280;2022-12-07T04:54:04;5.45;;;3.88;;
41512;SDS011;27244;59.940;30.280;2022-12-07T04:56:31;5.53;;;4.55;;
41512;SDS011;27244;59.940;30.280;2022-12-07T04:59:00;5.75;;;5.00;;
41512;SDS011;27244;59.940;30.280;2022-12-07T05:01:28;6.45;;;5.53;;
41512;SDS011;27244;59.940;30.280;2022-12-07T05:03:55;6.57;;;5.88;;
41512;SDS011;27244;59.940;30.280;2022-12-07T05:06:22;7.65;;;6.53;;
41512;SDS011;27244;59.940;30.280;2022-12-07T05:08:50;8.68;;;7.55;;
41512;SDS011;27244;59.940;30.280;2022-12-07T05:11:18;9.80;;;8.02;;
41512;SDS011;27244;59.940;30.280;2022-12-07T05:14:03;15.90;;;11.73;;
41512;SDS011;27244;59.940;30.280;2022-12-07T05:16:32;13.98;;;11.13;;
41512;SDS011;27244;59.940;30.280;2022-12-07T05:18:59;18.80;;;14.80;;
41512;SDS011;27244;59.940;30.280;2022-12-07T05:21:26;19.40;;;16.15;;
41512;SDS011;27244;59.940;30.280;2022-12-07T05:23:53;21.23;;;16.40;;
41512;SDS011;27244;59.940;30.280;2022-12-07T05:26:21;25.27;;;17.63;;
41512;SDS011;27244;59.940;30.280;2022-12-07T05:28:49;22.90;;;17.75;;
41512;SDS011;27244;59.940;30.280;2022-12-07T05:31:17;27.50;;;19.42;;
41512;SDS011;27244;59.940;30.280;2022-12-07T05:33:44;25.05;;;16.90;;
41512;SDS011;27244;59.940;30.280;2022-12-07T05:36:11;23.48;;;16.67;;
41512;SDS011;27244;59.940;30.280;2022-12-07T05:38:38;25.55;;;17.75;;
41512;SDS011;27244;59.940;30.280;2022-12-07T05:41:06;24.10;;;18.02;;
41512;SDS011;27244;59.940;30.280;2022-12-07T05:43:55;26.17;;;19.52;;
41512;SDS011;27244;59.940;30.280;2022-12-07T05:46:22;27.10;;;19.65;;
41512;SDS011;27244;59.940;30.280;2022-12-07T05:48:49;22.48;;;19.27;;
41512;SDS011;27244;59.940;30.280;2022-12-07T05:51:16;27.08;;;21.35;;
41512;SDS011;27244;59.940;30.280;2022-12-07T05:53:43;26.73;;;19.95;;
41512;SDS011;27244;59.940;30.280;2022-12-07T05:56:11;26.67;;;19.15;;
41512;SDS011;27244;59.940;30.280;2022-12-07T05:58:37;25.02;;;19.20;;
41512;SDS011;27244;59.940;30.280;2022-12-07T06:01:24;26.35;;;19.58;;
41512;SDS011;27244;59.940;30.280;2022-12-07T06:03:51;27.90;;;19.67;;
41512;SDS011;27244;59.940;30.280;2022-12-07T06:06:18;25.77;;;20.02;;
41512;SDS011;27244;59.940;30.280;2022-12-07T06:08:45;26.92;;;21.13;;
41512;SDS011;27244;59.940;30.280;2022-12-07T06:11:12;29.77;;;21.05;;
41512;SDS011;27244;59.940;30.280;2022-12-07T06:13:52;29.87;;;21.03;;
41512;SDS011;27244;59.940;30.280;2022-12-07T06:16:19;28.75;;;21.23;;
41512;SDS011;27244;59.940;30.280;2022-12-07T06:18:48;31.67;;;22.38;;
41512;SDS011;27244;59.940;30.280;2022-12-07T06:21:15;26.27;;;20.52;;
41512;SDS011;27244;59.940;30.280;2022-12-07T06:23:41;27.30;;;21.48;;
41512;SDS011;27244;59.940;30.280;2022-12-07T06:26:08;29.58;;;21.73;;
41512;SDS011;27244;59.940;30.280;2022-12-07T06:28:35;31.70;;;23.60;;
41512;SDS011;27244;59.940;30.280;2022-12-07T06:31:05;29.55;;;23.13;;
41512;SDS011;27244;59.940;30.280;2022-12-07T06:33:35;34.50;;;26.33;;
41512;SDS011;27244;59.940;30.280;2022-12-07T06:36:03;33.95;;;22.73;;
41512;SDS011;27244;59.940;30.280;2022-12-07T06:38:30;37.80;;;27.63;;
41512;SDS011;27244;59.940;30.280;2022-12-07T06:40:57;33.80;;;25.15;;
41512;SDS011;27244;59.940;30.280;2022-12-07T06:43:24;33.20;;;26.70;;
41512;SDS011;27244;59.940;30.280;2022-12-07T06:45:52;42.00;;;28.77;;
41512;SDS011;27244;59.940;30.280;2022-12-07T06:48:19;37.45;;;29.73;;
41512;SDS011;27244;59.940;30.280;2022-12-07T06:50:46;34.90;;;28.25;;
41512;SDS011;27244;59.940;30.280;2022-12-07T06:53:16;38.05;;;29.17;;
41512;SDS011;27244;59.940;30.280;2022-12-07T06:58:52;35.50;;;29.17;;
41512;SDS011;27244;59.940;30.280;2022-12-07T07:01:19;34.50;;;27.77;;
41512;SDS011;27244;59.940;30.280;2022-12-07T07:03:46;36.88;;;27.55;;
41512;SDS011;27244;59.940;30.280;2022-12-07T07:06:13;35.20;;;29.10;;
41512;SDS011;27244;59.940;30.280;2022-12-07T07:08:42;39.13;;;30.98;;
41512;SDS011;27244;59.940;30.280;2022-12-07T07:11:09;42.70;;;32.28;;
41512;SDS011;27244;59.940;30.280;2022-12-07T07:13:37;38.90;;;31.52;;
41512;SDS011;27244;59.940;30.280;2022-12-07T07:16:04;41.83;;;33.28;;
41512;SDS011;27244;59.940;30.280;2022-12-07T07:18:31;40.58;;;32.42;;
41512;SDS011;27244;59.940;30.280;2022-12-07T07:20:59;42.67;;;34.53;;
41512;SDS011;27244;59.940;30.280;2022-12-07T07:23:26;41.15;;;34.47;;
41512;SDS011;27244;59.940;30.280;2022-12-07T07:25:54;41.30;;;34.10;;
41512;SDS011;27244;59.940;30.280;2022-12-07T07:28:21;39.85;;;32.83;;
41512;SDS011;27244;59.940;30.280;2022-12-07T07:30:48;37.85;;;30.95;;
41512;SDS011;27244;59.940;30.280;2022-12-07T07:33:15;36.20;;;30.25;;
41512;SDS011;27244;59.940;30.280;2022-12-07T07:35:42;35.67;;;30.42;;
41512;SDS011;27244;59.940;30.280;2022-12-07T07:38:09;36.75;;;29.90;;
41512;SDS011;27244;59.940;30.280;2022-12-07T07:40:36;36.25;;;29.33;;
41512;SDS011;27244;59.940;30.280;2022-12-07T07:43:04;36.17;;;29.55;;
41512;SDS011;27244;59.940;30.280;2022-12-07T07:45:31;30.95;;;26.52;;
41512;SDS011;27244;59.940;30.280;2022-12-07T07:47:58;31.88;;;27.08;;
41512;SDS011;27244;59.940;30.280;2022-12-07T07:50:25;30.20;;;26.08;;
41512;SDS011;27244;59.940;30.280;2022-12-07T07:52:52;31.55;;;26.30;;
41512;SDS011;27244;59.940;30.280;2022-12-07T07:55:19;29.25;;;24.30;;
41512;SDS011;27244;59.940;30.280;2022-12-07T07:57:46;28.55;;;24.90;;
41512;SDS011;27244;59.940;30.280;2022-12-07T08:00:15;30.17;;;24.10;;
41512;SDS011;27244;59.940;30.280;2022-12-07T08:02:43;28.52;;;25.10;;
41512;SDS011;27244;59.940;30.280;2022-12-07T08:05:31;29.58;;;23.13;;
41512;SDS011;27244;59.940;30.280;2022-12-07T08:07:58;26.05;;;22.30;;
41512;SDS011;27244;59.940;30.280;2022-12-07T08:10:25;25.10;;;21.45;;
41512;SDS011;27244;59.940;30.280;2022-12-07T08:12:52;24.73;;;21.08;;
41512;SDS011;27244;59.940;30.280;2022-12-07T08:15:47;27.80;;;21.58;;
41512;SDS011;27244;59.940;30.280;2022-12-07T08:18:14;28.85;;;19.25;;
41512;SDS011;27244;59.940;30.280;2022-12-07T08:20:42;23.02;;;19.77;;
41512;SDS011;27244;59.940;30.280;2022-12-07T08:23:09;27.88;;;19.70;;
41512;SDS011;27244;59.940;30.280;2022-12-07T08:25:37;22.33;;;19.35;;
41512;SDS011;27244;59.940;30.280;2022-12-07T08:28:04;22.52;;;18.60;;
41512;SDS011;27244;59.940;30.280;2022-12-07T08:30:32;22.88;;;19.08;;
41512;SDS011;27244;59.940;30.280;2022-12-07T08:33:00;21.83;;;17.25;;
41512;SDS011;27244;59.940;30.280;2022-12-07T08:35:27;20.92;;;17.27;;
41512;SDS011;27244;59.940;30.280;2022-12-07T08:37:54;25.45;;;18.33;;
41512;SDS011;27244;59.940;30.280;2022-12-07T08:40:23;19.08;;;16.10;;
41512;SDS011;27244;59.940;30.280;2022-12-07T08:42:52;21.73;;;16.90;;
41512;SDS011;27244;59.940;30.280;2022-12-07T08:45:20;18.05;;;16.13;;
41512;SDS011;27244;59.940;30.280;2022-12-07T08:47:49;19.98;;;16.45;;
41512;SDS011;27244;59.940;30.280;2022-12-07T08:50:21;20.40;;;16.38;;
41512;SDS011;27244;59.940;30.280;2022-12-07T08:52:49;19.52;;;15.23;;
41512;SDS011;27244;59.940;30.280;2022-12-07T08:55:19;19.98;;;16.35;;
41512;SDS011;27244;59.940;30.280;2022-12-07T08:57:46;17.42;;;15.18;;
41512;SDS011;27244;59.940;30.280;2022-12-07T09:00:13;18.67;;;15.93;;
41512;SDS011;27244;59.940;30.280;2022-12-07T09:02:42;16.65;;;14.30;;
41512;SDS011;27244;59.940;30.280;2022-12-07T09:05:09;19.48;;;15.18;;
41512;SDS011;27244;59.940;30.280;2022-12-07T09:07:38;17.08;;;14.57;;
41512;SDS011;27244;59.940;30.280;2022-12-07T09:10:05;17.90;;;14.95;;
41512;SDS011;27244;59.940;30.280;2022-12-07T09:12:35;16.48;;;14.40;;
41512;SDS011;27244;59.940;30.280;2022-12-07T09:15:06;14.82;;;13.10;;
41512;SDS011;27244;59.940;30.280;2022-12-07T09:17:34;15.30;;;13.68;;
41512;SDS011;27244;59.940;30.280;2022-12-07T09:20:01;17.15;;;13.40;;
41512;SDS011;27244;59.940;30.280;2022-12-07T09:22:29;15.30;;;13.32;;
41512;SDS011;27244;59.940;30.280;2022-12-07T09:24:57;15.32;;;12.63;;
41512;SDS011;27244;59.940;30.280;2022-12-07T09:27:25;13.82;;;12.23;;
41512;SDS011;27244;59.940;30.280;2022-12-07T09:29:54;13.75;;;11.75;;
41512;SDS011;27244;59.940;30.280;2022-12-07T09:32:23;13.68;;;12.07;;
41512;SDS011;27244;59.940;30.280;2022-12-07T09:34:50;13.93;;;12.18;;
41512;SDS011;27244;59.940;30.280;2022-12-07T09:37:17;14.55;;;11.23;;
41512;SDS011;27244;59.940;30.280;2022-12-07T09:39:50;13.52;;;11.10;;
41512;SDS011;27244;59.940;30.280;2022-12-07T09:42:28;14.35;;;11.57;;
41512;SDS011;27244;59.940;30.280;2022-12-07T09:45:02;13.85;;;11.50;;
41512;SDS011;27244;59.940;30.280;2022-12-07T09:47:35;13.20;;;11.23;;
41512;SDS011;27244;59.940;30.280;2022-12-07T09:50:03;14.13;;;11.20;;
41512;SDS011;27244;59.940;30.280;2022-12-07T09:52:37;13.57;;;11.43;;
41512;SDS011;27244;59.940;30.280;2022-12-07T09:55:08;12.27;;;10.85;;
41512;SDS011;27244;59.940;30.280;2022-12-07T09:57:39;13.57;;;10.60;;
41512;SDS011;27244;59.940;30.280;2022-12-07T10:00:10;13.48;;;10.90;;
41512;SDS011;27244;59.940;30.280;2022-12-07T10:02:41;13.20;;;10.90;;
41512;SDS011;27244;59.940;30.280;2022-12-07T10:05:12;11.65;;;9.73;;
41512;SDS011;27244;59.940;30.280;2022-12-07T10:07:41;12.27;;;10.55;;
41512;SDS011;27244;59.940;30.280;2022-12-07T10:10:12;10.10;;;9.00;;
41512;SDS011;27244;59.940;30.280;2022-12-07T10:12:59;11.50;;;9.40;;
41512;SDS011;27244;59.940;30.280;2022-12-07T10:15:47;10.38;;;9.23;;
41512;SDS011;27244;59.940;30.280;2022-12-07T10:18:21;11.02;;;9.55;;
41512;SDS011;27244;59.940;30.280;2022-12-07T10:21:01;10.88;;;8.82;;
41512;SDS011;27244;59.940;30.280;2022-12-07T10:23:33;9.93;;;8.65;;
41512;SDS011;27244;59.940;30.280;2022-12-07T10:26:04;9.40;;;8.10;;
41512;SDS011;27244;59.940;30.280;2022-12-07T10:28:48;11.52;;;8.80;;
41512;SDS011;27244;59.940;30.280;2022-12-07T10:31:16;10.70;;;8.57;;
41512;SDS011;27244;59.940;30.280;2022-12-07T10:33:54;9.77;;;8.35;;
41512;SDS011;27244;59.940;30.280;2022-12-07T10:36:23;9.88;;;8.52;;
41512;SDS011;27244;59.940;30.280;2022-12-07T10:38:53;8.80;;;7.72;;
41512;SDS011;27244;59.940;30.280;2022-12-07T10:41:26;8.80;;;7.70;;
41512;SDS011;27244;59.940;30.280;2022-12-07T10:43:55;8.80;;;7.72;;
41512;SDS011;27244;59.940;30.280;2022-12-07T10:46:37;10.32;;;7.85;;
41512;SDS011;27244;59.940;30.280;2022-12-07T10:49:48;9.10;;;7.63;;
41512;SDS011;27244;59.940;30.280;2022-12-07T10:52:41;8.98;;;7.45;;
41512;SDS011;27244;59.940;30.280;2022-12-07T10:55:16;7.80;;;6.75;;
41512;SDS011;27244;59.940;30.280;2022-12-07T10:57:55;8.00;;;6.80;;
41512;SDS011;27244;59.940;30.280;2022-12-07T11:00:30;8.70;;;7.05;;
41512;SDS011;27244;59.940;30.280;2022-12-07T11:03:15;9.35;;;7.60;;
41512;SDS011;27244;59.940;30.280;2022-12-07T11:06:03;8.88;;;7.00;;
41512;SDS011;27244;59.940;30.280;2022-12-07T11:08:45;11.90;;;6.60;;
41512;SDS011;27244;59.940;30.280;2022-12-07T11:11:24;7.95;;;6.68;;
41512;SDS011;27244;59.940;30.280;2022-12-07T11:14:01;6.95;;;6.18;;
41512;SDS011;27244;59.940;30.280;2022-12-07T11:16:43;7.47;;;6.25;;
41512;SDS011;27244;59.940;30.280;2022-12-07T11:19:30;6.78;;;5.65;;
41512;SDS011;27244;59.940;30.280;2022-12-07T11:22:08;8.73;;;6.65;;
41512;SDS011;27244;59.940;30.280;2022-12-07T11:24:44;7.55;;;5.80;;
41512;SDS011;27244;59.940;30.280;2022-12-07T11:27:20;7.55;;;5.90;;
41512;SDS011;27244;59.940;30.280;2022-12-07T11:29:55;7.43;;;5.68;;
41512;SDS011;27244;59.940;30.280;2022-12-07T11:32:51;6.10;;;5.40;;
41512;SDS011;27244;59.940;30.280;2022-12-07T11:35:24;7.03;;;5.15;;
41512;SDS011;27244;59.940;30.280;2022-12-07T11:38:06;10.13;;;5.68;;
41512;SDS011;27244;59.940;30.280;2022-12-07T11:40:39;8.45;;;5.70;;
41512;SDS011;27244;59.940;30.280;2022-12-07T11:43:13;7.17;;;5.63;;
41512;SDS011;27244;59.940;30.280;2022-12-07T11:45:47;7.50;;;5.13;;
41512;SDS011;27244;59.940;30.280;2022-12-07T11:48:24;5.72;;;5.13;;
41512;SDS011;27244;59.940;30.280;2022-12-07T11:51:00;7.57;;;5.10;;
41512;SDS011;27244;59.940;30.280;2022-12-07T11:53:30;6.10;;;5.15;;
41512;SDS011;27244;59.940;30.280;2022-12-07T11:56:02;5.35;;;4.47;;
41512;SDS011;27244;59.940;30.280;2022-12-07T11:58:46;5.53;;;4.70;;
41512;SDS011;27244;59.940;30.280;2022-12-07T12:01:24;4.78;;;3.97;;
41512;SDS011;27244;59.940;30.280;2022-12-07T12:04:05;5.07;;;4.05;;
41512;SDS011;27244;59.940;30.280;2022-12-07T12:06:40;6.45;;;4.57;;
41512;SDS011;27244;59.940;30.280;2022-12-07T12:09:11;4.75;;;4.22;;
41512;SDS011;27244;59.940;30.280;2022-12-07T12:11:47;6.15;;;4.40;;
41512;SDS011;27244;59.940;30.280;2022-12-07T12:14:37;5.68;;;4.22;;
41512;SDS011;27244;59.940;30.280;2022-12-07T12:17:17;6.05;;;4.15;;
41512;SDS011;27244;59.940;30.280;2022-12-07T12:20:13;7.93;;;5.22;;
41512;SDS011;27244;59.940;30.280;2022-12-07T12:22:47;6.32;;;5.40;;
41512;SDS011;27244;59.940;30.280;2022-12-07T12:25:20;7.97;;;5.95;;
41512;SDS011;27244;59.940;30.280;2022-12-07T12:27:49;9.32;;;6.82;;
41512;SDS011;27244;59.940;30.280;2022-12-07T12:33:03;15.52;;;10.10;;
41512;SDS011;27244;59.940;30.280;2022-12-07T12:35:34;14.55;;;10.20;;
41512;SDS011;27244;59.940;30.280;2022-12-07T12:38:24;17.02;;;11.80;;
41512;SDS011;27244;59.940;30.280;2022-12-07T12:41:00;20.08;;;12.75;;
41512;SDS011;27244;59.940;30.280;2022-12-07T12:43:41;20.02;;;13.25;;
41512;SDS011;27244;59.940;30.280;2022-12-07T12:46:36;24.13;;;16.02;;
41512;SDS011;27244;59.940;30.280;2022-12-07T12:49:33;25.60;;;16.08;;
41512;SDS011;27244;59.940;30.280;2022-12-07T12:55:18;23.27;;;15.27;;
41512;SDS011;27244;59.940;30.280;2022-12-07T13:03:55;28.63;;;17.70;;
41512;SDS011;27244;59.940;30.280;2022-12-07T13:06:32;28.98;;;18.65;;
41512;SDS011;27244;59.940;30.280;2022-12-07T13:09:03;30.83;;;19.48;;
41512;SDS011;27244;59.940;30.280;2022-12-07T13:11:33;30.92;;;19.65;;
41512;SDS011;27244;59.940;30.280;2022-12-07T13:17:07;31.33;;;18.65;;
41512;SDS011;27244;59.940;30.280;2022-12-07T13:25:31;40.88;;;24.45;;
41512;SDS011;27244;59.940;30.280;2022-12-07T13:28:09;37.08;;;22.42;;
41512;SDS011;27244;59.940;30.280;2022-12-07T13:30:43;35.85;;;22.52;;
41512;SDS011;27244;59.940;30.280;2022-12-07T13:33:13;35.90;;;22.20;;
41512;SDS011;27244;59.940;30.280;2022-12-07T13:35:43;38.55;;;23.85;;
41512;SDS011;27244;59.940;30.280;2022-12-07T13:38:19;36.10;;;22.30;;
41512;SDS011;27244;59.940;30.280;2022-12-07T13:41:01;33.50;;;20.33;;
41512;SDS011;27244;59.940;30.280;2022-12-07T13:43:41;33.13;;;20.67;;
41512;SDS011;27244;59.940;30.280;2022-12-07T13:46:10;32.53;;;20.27;;
41512;SDS011;27244;59.940;30.280;2022-12-07T13:48:44;31.15;;;19.92;;
41512;SDS011;27244;59.940;30.280;2022-12-07T13:51:22;31.70;;;18.63;;
41512;SDS011;27244;59.940;30.280;2022-12-07T13:53:52;28.70;;;18.30;;
41512;SDS011;27244;59.940;30.280;2022-12-07T13:56:25;29.23;;;17.85;;
41512;SDS011;27244;59.940;30.280;2022-12-07T13:58:55;26.75;;;17.50;;
41512;SDS011;27244;59.940;30.280;2022-12-07T14:01:23;26.33;;;16.80;;
41512;SDS011;27244;59.940;30.280;2022-12-07T14:03:51;23.98;;;16.20;;
41512;SDS011;27244;59.940;30.280;2022-12-07T14:06:27;28.10;;;16.77;;
41512;SDS011;27244;59.940;30.280;2022-12-07T14:09:07;26.88;;;16.63;;
41512;SDS011;27244;59.940;30.280;2022-12-07T14:11:35;25.83;;;16.90;;
41512;SDS011;27244;59.940;30.280;2022-12-07T14:14:05;25.83;;;16.38;;
41512;SDS011;27244;59.940;30.280;2022-12-07T14:16:33;24.83;;;16.10;;
41512;SDS011;27244;59.940;30.280;2022-12-07T14:19:04;23.45;;;15.18;;
41512;SDS011;27244;59.940;30.280;2022-12-07T14:22:05;22.92;;;14.38;;
41512;SDS011;27244;59.940;30.280;2022-12-07T14:24:38;23.13;;;14.65;;
41512;SDS011;27244;59.940;30.280;2022-12-07T14:27:15;22.90;;;14.32;;
41512;SDS011;27244;59.940;30.280;2022-12-07T14:29:46;21.42;;;14.48;;
41512;SDS011;27244;59.940;30.280;2022-12-07T14:32:23;20.90;;;13.73;;
41512;SDS011;27244;59.940;30.280;2022-12-07T14:34:57;20.10;;;13.03;;
41512;SDS011;27244;59.940;30.280;2022-12-07T14:37:26;22.58;;;13.63;;
41512;SDS011;27244;59.940;30.280;2022-12-07T14:39:55;21.40;;;13.55;;
41512;SDS011;27244;59.940;30.280;2022-12-07T14:42:22;22.63;;;13.00;;
41512;SDS011;27244;59.940;30.280;2022-12-07T14:44:55;19.85;;;12.68;;
41512;SDS011;27244;59.940;30.280;2022-12-07T14:47:25;20.20;;;12.02;;
41512;SDS011;27244;59.940;30.280;2022-12-07T14:49:55;19.70;;;12.63;;
41512;SDS011;27244;59.940;30.280;2022-12-07T14:52:23;17.65;;;11.27;;
41512;SDS011;27244;59.940;30.280;2022-12-07T14:54:54;16.33;;;11.52;;
41512;SDS011;27244;59.940;30.280;2022-12-07T14:57:21;19.63;;;12.18;;
41512;SDS011;27244;59.940;30.280;2022-12-07T14:59:48;17.67;;;12.13;;
41512;SDS011;27244;59.940;30.280;2022-12-07T15:02:16;18.70;;;11.00;;
41512;SDS011;27244;59.940;30.280;2022-12-07T15:04:43;19.05;;;11.07;;
41512;SDS011;27244;59.940;30.280;2022-12-07T15:07:12;16.80;;;10.85;;
41512;SDS011;27244;59.940;30.280;2022-12-07T15:09:44;14.73;;;10.10;;
41512;SDS011;27244;59.940;30.280;2022-12-07T15:12:11;17.48;;;10.35;;
41512;SDS011;27244;59.940;30.280;2022-12-07T15:14:38;16.67;;;9.68;;